Time;durP1;ratioP1;P1;durP2;ratioP2;P2;SDS_P1;SDS_P2;PMS_P1;PMS_P2;Temp;Humidity;BMP_temperature;BMP_pressure;BME280_temperature;BME280_humidity;BME280_pressure;Samples;Min_cycle;Max_cycle;Signal;HPM_P1;HPM_P2
2021/07/19 00:00:13;;;;;;;8.25;4.90;;;;;;;20.44;61.99;100513.16;5043889;28;20132;-58
2021/07/19 00:02:41;;;;;;;10.85;5.45;;;;;;;20.26;62.31;100486.13;5033737;28;20124;-58
2021/07/19 00:05:11;;;;;;;8.63;5.00;;;;;;;20.41;62.39;100519.53;5031361;28;20065;-58
2021/07/19 00:07:39;;;;;;;11.57;5.25;;;;;;;20.41;62.11;100525.22;5037989;28;20052;-63
2021/07/19 00:10:09;;;;;;;9.65;4.78;;;;;;;20.26;62.58;100508.81;5035002;28;20136;-63
2021/07/19 00:12:36;;;;;;;;;;;;;;;20.17;62.27;100522.25;5036913;28;20073;-60
2021/07/19 00:15:07;;;;;;;10.10;5.25;;;;;;;20.17;62.58;100519.41;5037462;28;20347;-59
2021/07/19 00:17:34;;;;;;;7.72;4.50;;;;;;;20.04;62.52;100521.38;5044611;28;20132;-59
2021/07/19 00:20:01;;;;;;;9.05;4.80;;;;;;;20.08;62.81;100528.00;5037800;28;20084;-58
2021/07/19 00:22:28;;;;;;;8.18;4.68;;;;;;;20.09;63.27;100533.31;5033298;28;20080;-59
2021/07/19 00:24:55;;;;;;;8.13;5.13;;;;;;;20.04;63.28;100513.69;5047498;28;20140;-60
2021/07/19 00:27:21;;;;;;;9.35;5.65;;;;;;;20.20;63.11;100528.03;5050989;28;20408;-58
2021/07/19 00:29:48;;;;;;;15.50;4.82;;;;;;;20.27;63.40;100530.31;5046628;28;20164;-58
2021/07/19 00:32:15;;;;;;;12.90;5.30;;;;;;;20.34;63.37;100522.09;5044818;28;20168;-58
2021/07/19 00:34:42;;;;;;;7.80;4.53;;;;;;;20.23;63.13;100509.50;5050492;28;20073;-59
2021/07/19 00:37:09;;;;;;;8.02;4.18;;;;;;;20.29;63.34;100522.31;5048146;28;20053;-59
2021/07/19 00:39:36;;;;;;;9.15;4.70;;;;;;;20.17;63.35;100502.38;5049130;28;20095;-60
2021/07/19 00:42:03;;;;;;;11.13;4.47;;;;;;;20.20;63.18;100519.53;5031896;28;20793;-59
2021/07/19 00:44:30;;;;;;;12.25;5.25;;;;;;;20.19;63.41;100523.56;5028367;28;20050;-60
2021/07/19 00:46:57;;;;;;;10.77;5.30;;;;;;;20.19;63.61;100522.72;5041371;28;20073;-60
2021/07/19 00:49:25;;;;;;;10.20;4.90;;;;;;;20.19;63.34;100512.22;5041666;28;20049;-60
2021/07/19 00:51:52;;;;;;;12.52;5.35;;;;;;;20.16;63.64;100509.25;5035251;28;20073;-59
2021/07/19 00:54:21;;;;;;;15.30;5.85;;;;;;;20.05;63.49;100501.16;5044521;28;20140;-59
2021/07/19 00:56:49;;;;;;;10.25;5.03;;;;;;;20.11;63.51;100505.44;5044485;28;20132;-63
2021/07/19 00:59:17;;;;;;;13.30;5.35;;;;;;;20.08;63.52;100506.13;5049150;28;20156;-61
2021/07/19 01:01:47;;;;;;;12.18;5.18;;;;;;;20.05;64.15;100501.16;5045425;28;20132;-60
2021/07/19 01:04:17;;;;;;;9.20;4.78;;;;;;;19.91;63.75;100475.09;5079815;28;20496;-60
2021/07/19 01:06:48;;;;;;;9.32;4.03;;;;;;;19.94;64.00;100496.25;5048648;28;20080;-60
2021/07/19 01:09:15;;;;;;;7.07;3.90;;;;;;;20.01;64.42;100503.03;5047354;28;20180;-61
2021/07/19 01:11:42;;;;;;;8.23;4.18;;;;;;;20.03;64.33;100512.03;5035621;28;20129;-60
2021/07/19 01:14:09;;;;;;;9.82;4.43;;;;;;;20.03;64.42;100508.34;5040839;28;20132;-61
2021/07/19 01:16:36;;;;;;;9.00;4.05;;;;;;;20.03;64.27;100503.53;5049089;28;20110;-59
2021/07/19 01:19:03;;;;;;;9.27;3.92;;;;;;;19.74;64.21;100458.25;5051285;28;20136;-59
2021/07/19 01:21:51;;;;;;;9.38;4.10;;;;;;;19.99;64.15;100491.19;5052636;28;20132;-60
2021/07/19 01:24:29;;;;;;;10.27;4.40;;;;;;;19.96;64.33;100486.22;5050697;28;20131;-60
2021/07/19 01:27:28;;;;;;;10.10;4.25;;;;;;;19.96;64.51;100486.22;5045193;28;20140;-60
2021/07/19 01:29:57;;;;;;;5.72;3.30;;;;;;;19.95;64.72;100490.22;4993000;28;20056;-64
2021/07/19 01:32:25;;;;;;;7.30;3.50;;;;;;;19.99;64.59;100471.34;5044502;28;20077;-65
2021/07/19 01:34:53;;;;;;;6.22;3.58;;;;;;;19.94;64.63;100463.06;5052699;28;20079;-61
2021/07/19 01:37:22;;;;;;;7.75;3.75;;;;;;;20.03;64.77;100480.84;5046208;28;20132;-60
2021/07/19 01:39:51;;;;;;;9.02;3.60;;;;;;;19.96;64.81;100463.53;5039762;28;20073;-60
2021/07/19 01:42:18;;;;;;;8.48;3.42;;;;;;;19.97;64.86;100459.56;5036710;28;20623;-60
2021/07/19 01:44:46;;;;;;;6.88;3.50;;;;;;;19.99;64.94;100456.34;5043702;28;20081;-59
2021/07/19 01:47:14;;;;;;;9.40;4.13;;;;;;;20.07;64.50;100466.81;5045062;28;20053;-58
2021/07/19 01:49:42;;;;;;;6.50;4.13;;;;;;;20.08;64.64;100465.63;5036770;28;20077;-60
2021/07/19 01:52:11;;;;;;;6.63;3.88;;;;;;;20.04;64.69;100459.81;5034570;28;20568;-59
2021/07/19 01:54:41;;;;;;;7.68;3.95;;;;;;;20.09;64.31;100455.94;5046055;28;20076;-61
2021/07/19 01:57:07;;;;;;;7.88;3.85;;;;;;;20.09;64.55;100459.59;5045670;28;20083;-59
2021/07/19 01:59:35;;;;;;;7.63;4.10;;;;;;;20.07;64.37;100450.63;5050701;28;20216;-59
2021/07/19 02:02:02;;;;;;;9.23;4.38;;;;;;;20.07;64.62;100439.28;5043725;28;20081;-58
2021/07/19 02:04:29;;;;;;;7.90;4.45;;;;;;;20.12;64.46;100453.22;5042202;28;20072;-58
2021/07/19 02:06:56;;;;;;;10.82;4.18;;;;;;;20.12;64.52;100453.22;5034360;28;20136;-58
2021/07/19 02:09:23;;;;;;;8.45;4.13;;;;;;;19.96;64.65;100423.84;5035540;28;20045;-59
2021/07/19 02:11:51;;;;;;;7.88;3.70;;;;;;;20.11;64.84;100436.59;5045397;28;20136;-58
2021/07/19 02:14:19;;;;;;;7.60;4.47;;;;;;;20.00;64.98;100424.84;5048614;28;20461;-60
2021/07/19 02:16:50;;;;;;;7.53;4.03;;;;;;;20.10;64.81;100420.72;5039914;28;20131;-58
2021/07/19 02:19:18;;;;;;;8.98;4.70;;;;;;;20.31;64.96;100441.38;5045930;28;20064;-59
2021/07/19 02:21:45;;;;;;;9.05;4.30;;;;;;;20.29;64.70;100437.25;5049556;28;20136;-59
2021/07/19 02:24:14;;;;;;;9.60;4.68;;;;;;;20.28;64.77;100446.94;5045803;28;20401;-59
2021/07/19 02:26:41;;;;;;;7.90;4.53;;;;;;;20.18;64.86;100442.53;5048764;28;20144;-59
2021/07/19 02:29:10;;;;;;;11.77;4.50;;;;;;;20.13;64.92;100432.19;5050682;28;20049;-59
2021/07/19 02:31:39;;;;;;;8.23;4.18;;;;;;;20.12;65.05;100439.06;5047641;28;20076;-59
2021/07/19 02:34:06;;;;;;;12.40;5.20;;;;;;;20.11;65.19;100431.75;5042108;28;20408;-59
2021/07/19 02:36:34;;;;;;;11.90;5.15;;;;;;;20.17;65.45;100434.34;5040991;28;20449;-59
2021/07/19 02:39:01;;;;;;;7.97;4.43;;;;;;;20.17;65.16;100440.88;5046769;28;20136;-59
2021/07/19 02:41:28;;;;;;;9.82;4.85;;;;;;;20.14;65.34;100433.06;5042304;28;20065;-59
2021/07/19 02:43:58;;;;;;;10.88;5.03;;;;;;;20.10;65.33;100441.44;5044016;28;20307;-58
2021/07/19 02:46:28;;;;;;;10.88;4.90;;;;;;;20.02;65.52;100433.81;5049840;28;20153;-58
2021/07/19 02:48:57;;;;;;;12.05;4.65;;;;;;;20.13;65.51;100446.38;5046801;28;20498;-59
2021/07/19 02:51:28;;;;;;;7.68;4.47;;;;;;;20.16;65.32;100438.38;5048605;28;20136;-59
2021/07/19 02:53:57;;;;;;;12.57;5.72;;;;;;;20.16;65.28;100441.19;5049351;28;20133;-59
2021/07/19 02:56:24;;;;;;;10.27;4.13;;;;;;;20.17;65.29;100440.88;5050136;28;20072;-60
2021/07/19 02:58:52;;;;;;;11.05;5.05;;;;;;;20.23;65.32;100447.13;5039056;28;20128;-65
2021/07/19 03:01:22;;;;;;;7.97;4.32;;;;;;;20.28;65.22;100433.59;5041397;28;20426;-63
2021/07/19 03:03:50;;;;;;;13.23;4.38;;;;;;;20.34;64.86;100439.84;5043726;28;20051;-63
2021/07/19 03:06:25;;;;;;;9.73;4.63;;;;;;;20.26;64.66;100415.25;5045923;28;20048;-63
2021/07/19 03:08:53;;;;;;;9.52;4.85;;;;;;;20.39;64.78;100430.31;5036443;28;20569;-64
2021/07/19 03:11:29;;;;;;;9.93;4.55;;;;;;;20.39;64.77;100433.97;5053486;28;20072;-61
2021/07/19 03:13:59;;;;;;;7.53;4.07;;;;;;;20.09;64.97;100377.38;5038831;28;20141;-61
2021/07/19 03:16:28;;;;;;;7.97;4.70;;;;;;;20.36;64.96;100420.47;5040468;28;20077;-61
2021/07/19 03:18:57;;;;;;;8.05;4.53;;;;;;;20.34;65.21;100411.47;5048087;28;20045;-62
2021/07/19 03:21:26;;;;;;;10.10;5.57;;;;;;;20.46;65.33;100425.72;5042406;28;20125;-61
2021/07/19 03:23:57;;;;;;;7.97;4.47;;;;;;;20.49;64.96;100413.66;5039454;28;20085;-60
2021/07/19 03:26:26;;;;;;;11.57;4.82;;;;;;;20.55;65.07;100417.16;5045090;28;20135;-60
2021/07/19 03:28:56;;;;;;;11.40;4.75;;;;;;;20.58;64.76;100416.41;5047444;28;20083;-60
2021/07/19 03:31:25;;;;;;;9.27;4.68;;;;;;;20.61;64.85;100414.91;5037238;28;20131;-61
2021/07/19 03:33:53;;;;;;;13.10;5.50;;;;;;;20.64;64.80;100414.19;5047113;28;20049;-61
2021/07/19 03:36:20;;;;;;;8.88;4.75;;;;;;;20.69;64.76;100416.81;5040313;28;20369;-59
2021/07/19 03:38:48;;;;;;;12.13;5.32;;;;;;;20.73;64.96;100417.75;5049503;28;20136;-60
2021/07/19 03:41:15;;;;;;;11.93;4.97;;;;;;;20.74;64.71;100417.41;5039427;28;20046;-60
2021/07/19 03:43:45;;;;;;;9.20;4.40;;;;;;;20.71;64.47;100403.91;5043491;28;20106;-60
2021/07/19 03:46:12;;;;;;;12.02;4.97;;;;;;;20.67;64.36;100405.81;5048633;28;20137;-61
2021/07/19 03:48:40;;;;;;;9.32;3.88;;;;;;;20.82;64.42;100418.50;5042533;28;20497;-61
2021/07/19 03:51:07;;;;;;;8.90;4.68;;;;;;;20.77;64.42;100413.84;5052422;28;20128;-60
2021/07/19 03:53:36;;;;;;;8.00;4.85;;;;;;;20.85;64.23;100414.91;5048875;28;20187;-60
2021/07/19 03:56:03;;;;;;;7.57;4.50;;;;;;;20.82;64.55;100419.31;5031530;28;20073;-61
2021/07/19 03:58:32;;;;;;;8.23;4.38;;;;;;;20.78;64.23;100414.69;5032402;28;20137;-61
2021/07/19 04:01:00;;;;;;;14.27;4.13;;;;;;;20.74;64.50;100408.88;5038546;28;20082;-59
2021/07/19 04:03:31;;;;;;;8.73;4.60;;;;;;;20.60;64.28;100399.88;5048058;28;20052;-59
2021/07/19 04:06:02;;;;;;;10.82;5.07;;;;;;;20.74;64.31;100422.25;5051635;28;20143;-59
2021/07/19 04:08:33;;;;;;;7.97;4.40;;;;;;;20.72;64.49;100408.44;5048135;28;20041;-58
2021/07/19 04:11:01;;;;;;;7.75;4.63;;;;;;;20.67;64.43;100390.78;5032346;28;20152;-59
2021/07/19 04:13:29;;;;;;;15.40;5.10;;;;;;;20.76;64.43;100405.72;5052262;28;20072;-60
2021/07/19 04:15:59;;;;;;;11.73;5.28;;;;;;;20.71;64.46;100403.91;5036768;28;20081;-60
2021/07/19 04:18:26;;;;;;;11.57;4.90;;;;;;;20.63;64.59;100406.88;5051696;28;20052;-59
2021/07/19 04:20:54;;;;;;;13.13;5.50;;;;;;;20.69;64.38;100416.81;5032472;28;20128;-59
2021/07/19 04:23:22;;;;;;;13.57;5.07;;;;;;;20.71;64.29;100415.25;5048392;28;20127;-59
2021/07/19 04:25:49;;;;;;;8.90;4.97;;;;;;;20.79;64.42;100419.19;5034759;28;20160;-59
2021/07/19 04:28:21;;;;;;;13.60;5.45;;;;;;;20.47;64.29;100367.78;5045127;28;20139;-59
2021/07/19 04:30:49;;;;;;;11.50;5.40;;;;;;;20.75;64.44;100415.38;5038770;28;20040;-59
2021/07/19 04:33:18;;;;;;;13.02;5.47;;;;;;;20.76;64.24;100415.03;5040226;28;20604;-59
2021/07/19 04:35:46;;;;;;;12.25;5.53;;;;;;;20.66;64.34;100398.47;5042398;28;20124;-61
2021/07/19 04:38:19;;;;;;;10.52;5.25;;;;;;;20.75;64.41;100413.41;5038370;28;20536;-61
2021/07/19 04:40:48;;;;;;;15.05;5.63;;;;;;;20.66;64.54;100409.00;5033988;28;20129;-62
2021/07/19 04:43:16;;;;;;;15.20;5.80;;;;;;;20.72;64.47;100416.13;5034519;28;20311;-62
2021/07/19 04:45:47;;;;;;;10.65;5.38;;;;;;;20.70;64.32;100418.47;5038230;28;20137;-62
2021/07/19 04:48:15;;;;;;;11.57;5.93;;;;;;;20.71;64.50;100406.75;5053331;28;20128;-62
2021/07/19 04:50:43;;;;;;;12.05;5.80;;;;;;;20.62;64.36;100391.03;5043213;28;20124;-60
2021/07/19 04:53:10;;;;;;;13.45;5.40;;;;;;;20.73;64.41;100417.75;5047455;28;20544;-59
2021/07/19 04:55:40;;;;;;;12.65;5.78;;;;;;;20.59;64.45;100398.22;5041279;28;20120;-59
2021/07/19 04:58:10;;;;;;;10.02;5.50;;;;;;;20.49;64.75;100390.97;5049589;28;20049;-60
2021/07/19 05:00:39;;;;;;;14.40;5.63;;;;;;;20.53;64.68;100393.97;5039777;28;20589;-59
2021/07/19 05:03:09;;;;;;;13.93;6.00;;;;;;;20.48;64.62;100386.50;5055063;28;20073;-60
2021/07/19 05:05:39;;;;;;;14.45;6.95;;;;;;;20.60;64.66;100414.06;5050913;28;20045;-64
2021/07/19 05:08:09;;;;;;;13.43;5.93;;;;;;;20.57;64.74;100404.25;5057813;28;20096;-64
2021/07/19 05:10:36;;;;;;;10.32;6.78;;;;;;;20.64;64.70;100419.88;5053999;28;20124;-64
2021/07/19 05:13:04;;;;;;;10.38;5.65;;;;;;;20.65;64.52;100413.00;5037684;28;20557;-64
2021/07/19 05:15:31;;;;;;;18.35;6.60;;;;;;;20.62;64.68;100411.72;5040789;28;20120;-61
2021/07/19 05:17:59;;;;;;;12.10;5.22;;;;;;;20.54;64.76;100401.28;5037444;28;20764;-68
2021/07/19 05:20:28;;;;;;;11.50;4.60;;;;;;;20.58;64.79;100411.59;5040117;28;20132;-65
2021/07/19 05:22:55;;;;;;;12.30;5.03;;;;;;;20.54;64.92;100410.63;5044034;28;20128;-66
2021/07/19 05:25:27;;;;;;;15.90;5.78;;;;;;;20.56;64.85;100404.59;5043694;28;20128;-65
2021/07/19 05:28:03;;;;;;;8.77;4.57;;;;;;;20.54;64.91;100410.63;5042814;28;20080;-64
2021/07/19 05:30:31;;;;;;;10.88;4.93;;;;;;;20.49;64.89;100402.31;5048260;28;20136;-65
2021/07/19 05:32:58;;;;;;;13.07;5.32;;;;;;;20.59;64.75;100418.91;5038918;28;20124;-65
2021/07/19 05:35:25;;;;;;;12.18;4.70;;;;;;;20.61;64.87;100420.56;5048874;28;20080;-65
2021/07/19 05:37:52;;;;;;;10.02;5.20;;;;;;;20.49;64.89;100401.50;5054729;28;20072;-66
2021/07/19 05:40:19;;;;;;;9.25;5.28;;;;;;;20.63;64.99;100398.34;5046616;28;20116;-66
2021/07/19 05:42:46;;;;;;;18.88;10.80;;;;;;;20.67;65.01;100405.81;5040382;28;20132;-61
2021/07/19 05:45:14;;;;;;;14.85;9.02;;;;;;;20.73;64.80;100403.56;5047583;28;20066;-62
2021/07/19 05:47:41;;;;;;;12.63;7.68;;;;;;;20.77;64.65;100413.03;5041264;28;20140;-60
2021/07/19 05:50:09;;;;;;;13.02;6.13;;;;;;;20.76;64.59;100400.03;5037565;28;20053;-61
2021/07/19 05:52:36;;;;;;;9.93;5.22;;;;;;;20.81;64.78;100405.47;5044138;28;20128;-65
2021/07/19 05:55:04;;;;;;;8.50;4.93;;;;;;;20.86;64.87;100405.25;5037246;28;20128;-62
2021/07/19 05:57:31;;;;;;;10.45;4.85;;;;;;;20.89;64.46;100404.53;5045791;28;20116;-60
2021/07/19 05:59:58;;;;;;;10.57;4.53;;;;;;;20.87;64.42;100404.06;5046015;28;20044;-68
2021/07/19 06:02:28;;;;;;;11.05;5.18;;;;;;;20.80;64.54;100389.63;5036953;28;20565;-62
2021/07/19 06:04:56;;;;;;;16.27;6.85;;;;;;;20.85;64.61;100397.06;5040417;28;20494;-59
2021/07/19 06:07:23;;;;;;;10.98;6.22;;;;;;;20.85;64.28;100405.59;5034357;28;20565;-61
2021/07/19 06:09:50;;;;;;;11.40;6.18;;;;;;;20.85;64.35;100414.09;5037069;28;20049;-62
2021/07/19 06:12:17;;;;;;;9.90;4.88;;;;;;;20.83;64.50;100411.63;5031958;28;20076;-64
2021/07/19 06:14:44;;;;;;;10.13;4.93;;;;;;;20.81;64.48;100408.31;5043403;28;20124;-65
2021/07/19 06:17:12;;;;;;;7.88;4.93;;;;;;;20.78;64.58;100412.66;5043704;28;20127;-64
2021/07/19 06:19:42;;;;;;;7.68;4.25;;;;;;;20.75;64.77;100410.56;5050508;28;20037;-63
2021/07/19 06:22:10;;;;;;;7.57;4.95;;;;;;;20.76;64.70;100405.72;5047891;28;20128;-63
2021/07/19 06:24:38;;;;;;;8.00;4.32;;;;;;;20.68;64.63;100398.13;5045812;28;20156;-61
2021/07/19 06:27:06;;;;;;;9.13;5.03;;;;;;;20.70;64.69;100395.75;5029250;28;20443;-62
2021/07/19 06:29:33;;;;;;;8.35;4.50;;;;;;;20.75;64.69;100401.19;5032352;28;20072;-62
2021/07/19 06:32:01;;;;;;;9.05;4.55;;;;;;;20.78;64.68;100409.00;5042114;28;20126;-62
2021/07/19 06:34:28;;;;;;;12.13;4.50;;;;;;;20.81;64.89;100408.31;5043876;28;20068;-63
2021/07/19 06:36:55;;;;;;;9.98;4.45;;;;;;;20.80;64.96;100403.81;5037981;28;20128;-62
2021/07/19 06:39:22;;;;;;;10.20;4.93;;;;;;;20.73;64.71;100386.53;5031363;28;20069;-62
2021/07/19 06:41:49;;;;;;;9.88;4.82;;;;;;;20.76;64.86;100383.00;5040702;28;20068;-63
2021/07/19 06:44:16;;;;;;;10.13;4.60;;;;;;;20.76;64.77;100395.19;5042039;28;20638;-62
2021/07/19 06:46:43;;;;;;;7.93;4.40;;;;;;;20.60;64.84;100391.38;5037305;28;20077;-64
2021/07/19 06:49:09;;;;;;;7.72;4.22;;;;;;;20.59;65.12;100407.56;5038167;28;20119;-62
2021/07/19 06:51:37;;;;;;;11.38;5.40;;;;;;;20.57;65.14;100400.59;5041302;28;20125;-63
2021/07/19 06:54:04;;;;;;;13.88;5.93;;;;;;;20.51;65.23;100388.66;5039439;28;20095;-63
2021/07/19 06:56:32;;;;;;;13.40;5.53;;;;;;;20.60;65.45;100402.72;5036807;28;20508;-63
2021/07/19 06:58:58;;;;;;;8.20;5.25;;;;;;;20.60;65.33;100411.22;5048204;28;20057;-62
2021/07/19 07:01:25;;;;;;;12.57;5.32;;;;;;;20.53;65.29;100391.94;5045146;28;20087;-62
2021/07/19 07:03:53;;;;;;;11.27;5.88;;;;;;;20.67;65.46;100397.28;5040037;28;20049;-62
2021/07/19 07:06:27;;;;;;;10.35;4.72;;;;;;;20.62;65.28;100388.19;5038865;28;20505;-62
2021/07/19 07:08:55;;;;;;;11.80;5.45;;;;;;;20.78;65.39;100400.50;5039561;28;20080;-62
2021/07/19 07:11:22;;;;;;;13.52;4.55;;;;;;;20.71;65.49;100386.06;5043176;28;20124;-62
2021/07/19 07:13:49;;;;;;;10.52;4.63;;;;;;;20.83;65.28;100412.44;5045534;28;20166;-62
2021/07/19 07:16:16;;;;;;;8.52;4.30;;;;;;;20.86;65.27;100416.59;5037645;28;20045;-60
2021/07/19 07:18:43;;;;;;;7.50;3.95;;;;;;;20.80;65.48;100404.63;5038412;28;20511;-62
2021/07/19 07:21:10;;;;;;;6.43;3.88;;;;;;;20.84;65.19;100416.13;5049509;28;20076;-62
2021/07/19 07:23:37;;;;;;;10.18;4.53;;;;;;;20.84;65.30;100421.78;5039282;28;20072;-62
2021/07/19 07:26:04;;;;;;;7.57;4.10;;;;;;;20.86;65.32;100422.28;5049058;28;20103;-62
2021/07/19 07:28:31;;;;;;;11.77;4.78;;;;;;;20.74;65.48;100400.38;5043709;28;20136;-62
2021/07/19 07:30:58;;;;;;;8.02;4.25;;;;;;;20.88;65.12;100417.06;5042727;28;20124;-62
2021/07/19 07:33:25;;;;;;;9.18;4.10;;;;;;;20.86;65.19;100416.59;5033506;28;20271;-61
2021/07/19 07:35:52;;;;;;;8.90;4.43;;;;;;;20.85;65.11;100409.25;5035247;28;20147;-61
2021/07/19 07:38:19;;;;;;;10.02;4.53;;;;;;;21.00;65.07;100424.75;5044163;28;20124;-61
2021/07/19 07:40:48;;;;;;;8.50;4.78;;;;;;;21.01;65.22;100421.56;5051274;28;20132;-61
2021/07/19 07:43:15;;;;;;;6.97;4.25;;;;;;;21.05;65.02;100428.19;5033108;28;20084;-61
2021/07/19 07:45:42;;;;;;;6.43;3.72;;;;;;;20.99;64.88;100401.22;5044876;28;20348;-61
2021/07/19 07:48:09;;;;;;;7.18;4.18;;;;;;;21.09;64.74;100414.09;5044326;28;20084;-62
2021/07/19 07:50:35;;;;;;;7.97;3.58;;;;;;;21.13;64.68;100417.91;5039173;28;20079;-62
2021/07/19 07:53:03;;;;;;;7.57;3.88;;;;;;;21.03;64.73;100405.00;5034818;28;20049;-62
2021/07/19 07:55:30;;;;;;;6.45;2.90;;;;;;;21.16;64.46;100422.03;5032881;28;20075;-62
2021/07/19 07:57:56;;;;;;;5.60;3.67;;;;;;;21.08;64.65;100400.28;5037483;28;20045;-62
2021/07/19 08:00:23;;;;;;;5.13;3.30;;;;;;;21.21;64.44;100421.81;5031442;28;20136;-61
2021/07/19 08:02:50;;;;;;;7.63;3.78;;;;;;;21.18;64.29;100423.34;5034300;28;20525;-61
2021/07/19 08:05:17;;;;;;;7.35;3.55;;;;;;;21.23;64.36;100419.41;5029959;28;20050;-61
2021/07/19 08:07:45;;;;;;;6.05;3.05;;;;;;;21.28;64.21;100422.03;5071600;28;20084;-60
2021/07/19 08:10:13;;;;;;;4.53;2.35;;;;;;;21.23;63.94;100402.38;5040232;28;20156;-61
2021/07/19 08:12:43;;;;;;;4.88;2.75;;;;;;;21.20;63.60;100388.91;5035005;28;20064;-61
2021/07/19 08:15:13;;;;;;;5.53;2.63;;;;;;;21.35;63.55;100410.94;5033951;28;20068;-61
2021/07/19 08:17:40;;;;;;;4.97;2.40;;;;;;;21.38;63.53;100421.59;5035021;28;20680;-62
2021/07/19 08:20:07;;;;;;;3.70;2.03;;;;;;;21.35;63.62;100398.75;5033533;28;20192;-63
2021/07/19 08:22:34;;;;;;;3.72;1.95;;;;;;;21.35;63.37;100399.56;5032273;28;20081;-62
2021/07/19 08:25:02;;;;;;;3.28;2.15;;;;;;;21.44;63.44;100408.78;5031408;28;20049;-62
2021/07/19 08:27:34;;;;;;;4.07;2.22;;;;;;;21.40;63.06;100396.50;5033037;28;20569;-62
2021/07/19 08:30:02;;;;;;;5.10;2.65;;;;;;;21.56;63.24;100407.09;5031988;28;20041;-64
2021/07/19 08:32:29;;;;;;;4.25;2.35;;;;;;;21.58;63.22;100407.59;5034418;28;20051;-64
2021/07/19 08:34:56;;;;;;;5.32;2.45;;;;;;;21.65;63.00;100407.81;5032337;28;20049;-64
2021/07/19 08:37:23;;;;;;;5.63;2.35;;;;;;;21.54;63.19;100387.59;5037213;28;20045;-61
2021/07/19 08:39:50;;;;;;;10.10;5.50;;;;;;;21.73;62.88;100409.66;5032014;28;20069;-64
2021/07/19 08:42:16;;;;;;;6.30;3.67;;;;;;;21.61;62.65;100398.34;5038359;28;20067;-66
2021/07/19 08:44:43;;;;;;;4.05;2.47;;;;;;;21.70;62.55;100424.59;5034223;28;20053;-68
2021/07/19 08:47:12;;;;;;;6.22;2.42;;;;;;;21.69;62.68;100409.56;5031713;28;20037;-62
2021/07/19 08:49:40;;;;;;;5.20;2.80;;;;;;;21.69;62.23;100409.56;5038641;28;20059;-63
2021/07/19 08:52:07;;;;;;;3.33;2.35;;;;;;;21.72;62.20;100414.53;5035733;28;20069;-65
2021/07/19 08:54:35;;;;;;;3.72;2.20;;;;;;;21.72;62.24;100402.34;5037741;28;20136;-66
2021/07/19 08:57:04;;;;;;;4.25;2.30;;;;;;;21.81;62.21;100405.84;5036632;28;20099;-67
2021/07/19 08:59:45;;;;;;;4.70;2.70;;;;;;;21.82;62.02;100401.84;5032233;28;20076;-68
2021/07/19 09:02:12;;;;;;;4.70;2.60;;;;;;;21.86;62.31;100402.75;5037723;28;20300;-69
2021/07/19 09:04:39;;;;;;;5.28;3.22;;;;;;;21.80;62.03;100378.63;5039332;28;20136;-66
2021/07/19 09:07:06;;;;;;;4.60;3.00;;;;;;;21.87;61.82;100384.50;5034404;28;20050;-68
2021/07/19 09:09:35;;;;;;;9.07;3.60;;;;;;;21.95;61.79;100392.06;5034662;28;20098;-68
2021/07/19 09:12:04;;;;;;;5.78;3.15;;;;;;;22.07;61.60;100399.72;5035259;28;21334;-69
2021/07/19 09:14:34;;;;;;;4.97;3.50;;;;;;;21.99;61.25;100384.47;5030584;28;20548;-66
2021/07/19 09:17:01;;;;;;;7.70;3.53;;;;;;;21.99;61.28;100384.47;5045780;28;20067;-67
2021/07/19 09:19:29;;;;;;;7.45;4.00;;;;;;;22.08;61.22;100387.13;5040490;28;20053;-69
2021/07/19 09:21:57;;;;;;;6.07;3.90;;;;;;;22.21;60.94;100402.16;5034663;28;20465;-68
2021/07/19 09:24:32;;;;;;;6.97;4.05;;;;;;;22.22;60.98;100404.66;5031650;28;20084;-64
2021/07/19 09:27:00;;;;;;;5.95;3.85;;;;;;;22.22;60.78;100398.13;5036290;28;20068;-63
2021/07/19 09:29:27;;;;;;;6.95;4.32;;;;;;;22.22;60.98;100383.91;5033329;28;20103;-63
2021/07/19 09:31:57;;;;;;;8.65;3.83;;;;;;;22.37;60.51;100390.84;5048677;28;20481;-66
2021/07/19 09:34:27;;;;;;;6.68;4.28;;;;;;;22.46;60.47;100397.16;5047947;28;20069;-63
2021/07/19 09:37:05;;;;;;;7.72;4.65;;;;;;;22.39;60.53;100369.38;5042453;28;20083;-65
2021/07/19 09:39:43;;;;;;;8.77;4.55;;;;;;;22.56;60.55;100387.25;5045230;28;20045;-65
2021/07/19 09:42:14;;;;;;;6.07;4.28;;;;;;;22.59;60.26;100378.81;5037765;28;20124;-62
2021/07/19 09:44:47;;;;;;;7.15;4.10;;;;;;;22.61;59.99;100375.63;5041534;28;20077;-67
2021/07/19 09:47:14;;;;;;;7.90;5.15;;;;;;;22.56;59.88;100370.19;5049469;28;20160;-63
2021/07/19 09:49:41;;;;;;;7.55;4.97;;;;;;;22.56;60.09;100378.72;5043399;28;20145;-63
2021/07/19 09:52:13;;;;;;;9.13;6.20;;;;;;;22.56;60.04;100379.53;5040859;28;20045;-61
2021/07/19 09:54:43;;;;;;;7.75;4.70;;;;;;;22.56;59.98;100381.56;5035933;28;20179;-61
2021/07/19 09:57:11;;;;;;;13.73;5.45;;;;;;;22.57;60.37;100380.41;5034221;28;20080;-59
2021/07/19 09:59:49;;;;;;;10.45;5.90;;;;;;;22.51;60.22;100370.47;5043831;28;20127;-62
2021/07/19 10:02:38;;;;;;;9.77;5.40;;;;;;;22.52;60.12;100377.81;5037166;28;20123;-64
2021/07/19 10:05:10;;;;;;;10.23;5.82;;;;;;;22.54;60.06;100366.91;5033355;28;20072;-61
2021/07/19 10:07:45;;;;;;;7.88;6.03;;;;;;;22.60;59.83;100369.09;5039089;28;20578;-63
2021/07/19 10:10:12;;;;;;;11.15;5.57;;;;;;;22.76;59.79;100377.63;5051387;28;20045;-63
2021/07/19 10:12:41;;;;;;;9.45;5.38;;;;;;;22.78;59.79;100380.94;5048728;28;20072;-63
2021/07/19 10:15:10;;;;;;;12.15;5.78;;;;;;;22.74;59.66;100357.25;5043041;28;20073;-62
2021/07/19 10:17:50;;;;;;;13.82;6.35;;;;;;;22.84;59.85;100373.78;5045725;28;20085;-63
2021/07/19 10:20:17;;;;;;;11.20;6.97;;;;;;;22.91;59.93;100382.50;5051558;28;20136;-63
2021/07/19 10:22:44;;;;;;;11.43;6.47;;;;;;;22.96;59.61;100375.72;5045237;28;20045;-64
2021/07/19 10:25:14;;;;;;;10.32;5.32;;;;;;;23.11;59.43;100374.03;5039051;28;20088;-64
2021/07/19 10:27:42;;;;;;;12.48;6.47;;;;;;;23.21;59.21;100362.09;5052002;28;20531;-65
2021/07/19 10:30:10;;;;;;;12.55;7.10;;;;;;;23.37;59.17;100364.91;5042124;28;20195;-66
2021/07/19 10:32:37;;;;;;;11.00;6.13;;;;;;;23.30;58.98;100339.09;5043967;28;20128;-65
2021/07/19 10:35:06;;;;;;;12.23;6.85;;;;;;;23.54;58.27;100360.81;5049112;28;20072;-64
2021/07/19 10:37:37;;;;;;;10.88;6.80;;;;;;;23.63;58.13;100362.25;5048327;28;20049;-66
2021/07/19 10:40:09;;;;;;;10.45;6.88;;;;;;;23.64;58.26;100361.03;5044889;28;20432;-67
2021/07/19 10:42:40;;;;;;;10.55;6.22;;;;;;;23.67;57.91;100362.31;5045904;28;20124;-64
2021/07/19 10:45:13;;;;;;;10.98;7.20;;;;;;;23.66;58.25;100374.94;5044353;28;20053;-64
2021/07/19 10:47:53;;;;;;;10.02;6.95;;;;;;;23.73;57.91;100358.00;5034855;28;20049;-64
2021/07/19 10:50:22;;;;;;;11.90;6.82;;;;;;;23.93;57.35;100361.69;5048074;28;20080;-64
2021/07/19 10:52:49;;;;;;;15.93;7.28;;;;;;;23.83;57.89;100357.41;5044176;28;20076;-64
2021/07/19 10:55:27;;;;;;;13.68;7.47;;;;;;;23.94;57.92;100368.22;5043818;28;20044;-64
2021/07/19 10:58:21;;;;;;;10.20;6.53;;;;;;;23.93;57.44;100373.09;5036455;28;20076;-64
2021/07/19 11:00:48;;;;;;;8.75;5.90;;;;;;;24.03;57.29;100371.63;5043793;28;20099;-62
2021/07/19 11:03:16;;;;;;;11.57;7.22;;;;;;;24.08;56.82;100357.91;5037009;28;20524;-63
2021/07/19 11:05:45;;;;;;;12.15;8.07;;;;;;;23.96;57.11;100345.81;5039827;28;20478;-69
2021/07/19 11:08:24;;;;;;;15.27;7.65;;;;;;;24.07;57.46;100361.97;5069238;28;20136;-63
2021/07/19 11:10:53;;;;;;;13.00;7.80;;;;;;;24.17;56.64;100359.69;5041554;28;20383;-62
2021/07/19 11:13:35;;;;;;;12.23;7.45;;;;;;;24.11;57.13;100365.72;5047808;28;20045;-63
2021/07/19 11:16:14;;;;;;;12.85;7.28;;;;;;;23.72;57.23;100316.41;5038389;28;20103;-63
2021/07/19 11:18:56;;;;;;;16.13;7.78;;;;;;;23.95;57.04;100352.75;5041680;28;20059;-63
2021/07/19 11:21:25;;;;;;;13.77;6.13;;;;;;;23.85;57.30;100360.69;5032385;28;20176;-63
2021/07/19 11:23:53;;;;;;;13.93;6.95;;;;;;;23.75;56.90;100349.06;5041313;28;20172;-62
2021/07/19 11:26:24;;;;;;;13.25;7.90;;;;;;;23.78;57.32;100348.31;5051150;28;20825;-63
2021/07/19 11:28:57;;;;;;;18.85;7.15;;;;;;;23.79;57.32;100345.06;5051289;28;20080;-63